Time;durP1;ratioP1;P1;durP2;ratioP2;P2;SDS_P1;SDS_P2;PMS_P1;PMS_P2;Temp;Humidity;BMP_temperature;BMP_pressure;BME280_temperature;BME280_humidity;BME280_pressure;Samples;Min_cycle;Max_cycle;Signal;HPM_P1;HPM_P2
2023/08/23 00:00:06;;;;;;;10.93;9.93;;;24.40;90.30;;;25.06;57.36;95236.69;5072379;28;20531;-59
2023/08/23 00:02:34;;;;;;;12.47;11.17;;;24.40;90.30;;;25.03;57.80;95234.44;5072562;28;20462;-55
2023/08/23 00:05:02;;;;;;;27.80;11.70;;;24.40;90.60;;;25.00;57.69;95226.00;5074151;28;20438;-58
2023/08/23 00:07:30;;;;;;;12.57;10.60;;;24.40;90.70;;;24.98;57.31;95225.41;5074598;28;20505;-59
2023/08/23 00:09:57;;;;;;;19.53;11.47;;;24.40;90.90;;;24.94;57.38;95230.41;5071602;28;20473;-59
2023/08/23 00:12:24;;;;;;;15.50;11.00;;;24.30;90.90;;;24.89;57.60;95224.84;5070554;28;20465;-58
2023/08/23 00:14:51;;;;;;;16.50;11.90;;;24.30;90.90;;;24.87;58.18;95224.25;5074305;28;20527;-55
2023/08/23 00:17:19;;;;;;;12.30;11.10;;;24.30;91.10;;;24.83;57.65;95228.44;5068739;28;20454;-59
2023/08/23 00:19:46;;;;;;;12.50;11.30;;;24.20;91.20;;;24.79;57.96;95228.06;5074206;28;20504;-59
2023/08/23 00:22:14;;;;;;;14.30;11.00;;;24.20;91.20;;;24.76;58.25;95225.00;5066952;28;20450;-57
2023/08/23 00:24:42;;;;;;;15.77;11.07;;;24.20;91.30;;;24.73;57.90;95228.94;5069326;28;20471;-55
2023/08/23 00:27:09;;;;;;;11.80;9.90;;;24.20;91.40;;;24.69;57.91;95222.34;5073607;28;20446;-55
2023/08/23 00:29:37;;;;;;;19.53;11.30;;;24.10;91.50;;;24.66;57.64;95223.63;5067995;28;20478;-54
2023/08/23 00:32:05;;;;;;;17.93;10.80;;;24.10;91.60;;;24.65;58.72;95227.34;5074387;28;20455;-57
2023/08/23 00:34:32;;;;;;;12.43;11.30;;;24.00;91.90;;;24.63;58.05;95226.75;5069769;28;20470;-55
2023/08/23 00:36:59;;;;;;;13.07;10.80;;;24.00;92.00;;;24.58;58.10;95229.25;5072223;28;20899;-55
2023/08/23 00:39:28;;;;;;;12.80;11.50;;;24.00;92.10;;;24.58;58.06;95225.75;5069469;28;20489;-57
2023/08/23 00:41:55;;;;;;;19.13;11.00;;;24.00;92.00;;;24.56;58.82;95223.25;5071734;28;20449;-55
2023/08/23 00:44:22;;;;;;;12.67;10.50;;;23.90;92.30;;;24.53;58.39;95221.81;5072081;28;20994;-55
2023/08/23 00:46:50;;;;;;;14.60;10.73;;;23.90;92.50;;;24.51;58.40;95215.00;5069587;28;20506;-55
2023/08/23 00:49:17;;;;;;;12.83;11.33;;;23.90;92.60;;;24.49;58.64;95223.31;5069106;28;20494;-56
2023/08/23 00:51:44;;;;;;;19.43;11.73;;;23.90;92.70;;;24.46;58.57;95212.97;5073436;28;20441;-56
2023/08/23 00:54:11;;;;;;;16.00;11.20;;;23.90;92.70;;;24.45;59.14;95215.88;5067911;28;20528;-55
2023/08/23 00:56:40;;;;;;;11.73;10.47;;;23.90;92.90;;;24.44;59.40;95220.41;5066254;28;20450;-56
2023/08/23 00:59:09;;;;;;;14.30;11.03;;;23.80;92.90;;;24.41;59.40;95215.47;5075261;28;20472;-55
2023/08/23 01:01:36;;;;;;;13.10;11.33;;;23.80;93.10;;;24.40;58.66;95213.00;5079237;28;20812;-58
2023/08/23 01:04:03;;;;;;;12.80;11.50;;;23.80;93.30;;;24.38;58.97;95215.09;5073463;28;20477;-59
2023/08/23 01:06:42;;;;;;;19.30;10.63;;;23.80;93.50;;;24.36;59.98;95220.69;5075893;28;20511;-60
2023/08/23 01:09:16;;;;;;;11.27;10.07;;;23.80;93.70;;;24.34;59.55;95215.53;5069528;28;20494;-56
2023/08/23 01:11:49;;;;;;;11.40;10.30;;;23.70;93.80;;;24.32;59.94;95227.53;5070475;28;20434;-56
2023/08/23 01:14:21;;;;;;;19.07;11.40;;;23.70;94.00;;;24.30;59.78;95222.38;5070940;28;20473;-55
2023/08/23 01:16:49;;;;;;;16.10;11.80;;;23.70;94.30;;;24.30;59.84;95225.06;5069629;28;20480;-59
2023/08/23 01:19:37;;;;;;;17.60;11.30;;;23.70;94.30;;;24.29;60.93;95228.81;5075087;28;20513;-60
2023/08/23 01:22:05;;;;;;;12.67;11.33;;;23.70;94.60;;;24.27;59.75;95230.88;5069547;28;20511;-60
2023/08/23 01:24:34;;;;;;;14.57;11.53;;;23.70;94.40;;;24.27;60.07;95232.75;5068426;28;20506;-57
2023/08/23 01:27:01;;;;;;;14.50;12.03;;;23.60;94.30;;;24.25;59.58;95226.78;5069374;28;20462;-59
2023/08/23 01:29:28;;;;;;;13.33;11.70;;;23.60;94.50;;;24.22;60.16;95225.34;5073169;28;21011;-58
2023/08/23 01:32:00;;;;;;;13.97;10.60;;;23.60;94.50;;;24.20;59.55;95224.72;5072670;28;20461;-59
2023/08/23 01:34:29;;;;;;;12.83;10.57;;;23.60;94.50;;;24.18;60.49;95224.09;5074151;28;20473;-57
2023/08/23 01:36:56;;;;;;;18.23;12.03;;;23.60;94.80;;;24.17;60.62;95222.47;5072536;28;20800;-54
2023/08/23 01:39:24;;;;;;;11.33;10.23;;;23.60;94.80;;;24.16;60.55;95224.31;5074131;28;20828;-59
2023/08/23 01:41:52;;;;;;;16.27;11.27;;;23.60;94.90;;;24.12;60.15;95208.84;5068416;28;20474;-55
2023/08/23 01:44:19;;;;;;;14.33;11.17;;;23.60;94.90;;;24.13;60.06;95223.94;5074174;28;20833;-56
2023/08/23 01:46:47;;;;;;;13.50;11.57;;;23.60;94.90;;;24.12;59.77;95224.97;5075629;28;20466;-59
2023/08/23 01:49:14;;;;;;;13.40;10.33;;;23.50;94.90;;;24.11;60.07;95226.84;5071364;28;20497;-56
2023/08/23 01:51:41;;;;;;;15.00;10.97;;;23.50;94.90;;;24.10;60.23;95232.44;5071370;28;20969;-58
2023/08/23 01:54:08;;;;;;;19.70;10.60;;;23.50;95.00;;;24.09;60.77;95220.03;5071132;28;20554;-56
2023/08/23 01:56:36;;;;;;;12.90;10.60;;;23.50;95.10;;;24.07;60.32;95225.63;5075337;28;20971;-57
2023/08/23 01:59:04;;;;;;;16.07;11.20;;;23.50;95.10;;;24.07;60.61;95230.19;5075541;28;20470;-59
2023/08/23 02:01:32;;;;;;;14.80;11.30;;;23.50;95.00;;;24.05;59.91;95232.25;5076006;28;20538;-55
2023/08/23 02:03:59;;;;;;;12.67;11.53;;;23.50;94.90;;;24.03;60.21;95231.63;5070440;28;20557;-58
2023/08/23 02:06:27;;;;;;;16.80;11.63;;;23.40;94.90;;;24.03;60.38;95228.94;5076988;28;20443;-56
2023/08/23 02:08:54;;;;;;;11.90;10.20;;;23.40;94.80;;;24.01;59.60;95228.34;5073064;28;20613;-59
2023/08/23 02:11:21;;;;;;;14.43;11.17;;;23.40;94.70;;;23.99;59.76;95232.06;5076045;28;20446;-59
2023/08/23 02:13:48;;;;;;;12.43;11.07;;;23.40;94.70;;;23.96;59.57;95232.50;5068347;28;20473;-57
2023/08/23 02:16:17;;;;;;;14.17;11.00;;;23.30;94.60;;;23.95;59.75;95225.50;5073176;28;20843;-58
2023/08/23 02:18:44;;;;;;;12.37;10.43;;;23.30;94.60;;;23.92;60.09;95223.22;5075340;28;20466;-59
2023/08/23 02:21:12;;;;;;;11.43;10.33;;;23.30;94.60;;;23.89;59.53;95220.97;5071289;28;20449;-59
2023/08/23 02:23:39;;;;;;;17.50;11.27;;;23.30;94.50;;;23.87;59.34;95216.84;5068040;28;20474;-55
2023/08/23 02:26:06;;;;;;;11.83;10.70;;;23.30;94.60;;;23.84;60.17;95220.78;5071212;28;20450;-55
2023/08/23 02:28:33;;;;;;;13.63;11.30;;;23.30;94.60;;;23.82;60.20;95214.78;5073044;28;20547;-59
2023/08/23 02:31:03;;;;;;;17.70;10.43;;;23.20;94.60;;;23.79;60.08;95218.69;5071052;28;20460;-59
2023/08/23 02:33:31;;;;;;;11.67;10.53;;;23.20;94.60;;;23.76;60.11;95219.13;5072631;28;20481;-59
2023/08/23 02:35:59;;;;;;;14.73;11.00;;;23.20;94.70;;;23.75;59.99;95222.03;5077233;28;20465;-55
2023/08/23 02:38:26;;;;;;;13.53;11.97;;;23.20;94.80;;;23.72;59.72;95222.44;5070600;28;20967;-55
2023/08/23 02:40:56;;;;;;;13.50;10.63;;;23.10;94.80;;;23.68;59.77;95223.94;5070900;28;20992;-60
2023/08/23 02:43:23;;;;;;;13.43;11.80;;;23.10;94.90;;;23.65;60.53;95222.50;5070431;28;20466;-59
2023/08/23 02:45:50;;;;;;;20.03;12.00;;;23.10;95.10;;;23.61;59.95;95216.72;5070503;28;20466;-58
2023/08/23 02:48:17;;;;;;;12.50;11.30;;;23.10;95.10;;;23.61;60.05;95226.66;5071741;28;20490;-60
2023/08/23 02:50:46;;;;;;;17.30;10.73;;;23.00;95.20;;;23.56;60.56;95229.97;5069572;28;20963;-56
2023/08/23 02:53:13;;;;;;;12.67;11.33;;;23.00;95.10;;;23.53;59.78;95219.66;5073740;28;20473;-58
2023/08/23 02:55:41;;;;;;;13.20;10.83;;;22.90;95.00;;;23.48;60.63;95222.13;5068537;28;21008;-59
2023/08/23 02:58:08;;;;;;;12.37;10.97;;;22.90;95.10;;;23.43;59.94;95222.78;5074343;28;20498;-55
2023/08/23 03:00:35;;;;;;;10.93;9.80;;;22.90;95.20;;;23.40;60.48;95219.69;5068011;28;20955;-58
2023/08/23 03:03:02;;;;;;;12.43;10.23;;;22.90;95.30;;;23.37;60.60;95220.94;5068574;28;21053;-57
2023/08/23 03:05:30;;;;;;;12.70;10.90;;;22.80;95.20;;;23.35;60.62;95220.31;5082147;28;20448;-56
2023/08/23 03:07:58;;;;;;;15.03;10.70;;;22.80;95.20;;;23.32;60.25;95219.94;5073273;28;20470;-55
2023/08/23 03:10:25;;;;;;;15.70;10.60;;;22.80;95.20;;;23.31;60.22;95220.97;5074110;28;20454;-55
2023/08/23 03:12:53;;;;;;;11.23;10.13;;;22.70;95.20;;;23.27;60.76;95216.00;5069419;28;20673;-57
2023/08/23 03:15:20;;;;;;;13.20;10.80;;;22.70;95.30;;;23.26;61.13;95225.09;5070425;28;20473;-57
2023/08/23 03:17:47;;;;;;;13.13;11.30;;;22.70;95.50;;;23.23;60.83;95222.00;5073586;28;20541;-58
2023/08/23 03:20:15;;;;;;;12.83;11.43;;;22.60;95.10;;;23.21;60.26;95226.78;5069514;28;20462;-57
2023/08/23 03:22:42;;;;;;;18.53;11.20;;;22.60;95.40;;;23.19;61.11;95223.44;5068506;28;20907;-59
2023/08/23 03:25:11;;;;;;;11.83;10.70;;;22.60;95.50;;;23.17;60.53;95225.53;5068340;28;20955;-60
2023/08/23 03:27:38;;;;;;;12.47;11.23;;;22.60;95.40;;;23.14;60.37;95216.03;5075897;28;20508;-56
2023/08/23 03:30:07;;;;;;;17.33;12.60;;;22.60;95.60;;;23.12;60.40;95218.13;5067415;28;20540;-56
2023/08/23 03:32:34;;;;;;;14.53;11.83;;;22.60;95.70;;;23.09;60.75;95216.66;5075124;28;20453;-59
2023/08/23 03:35:01;;;;;;;13.17;11.70;;;22.60;95.80;;;23.09;60.52;95218.53;5066470;28;20835;-57
2023/08/23 03:37:29;;;;;;;12.63;11.43;;;22.60;95.80;;;23.09;60.70;95218.53;5068825;28;20450;-57
2023/08/23 03:39:56;;;;;;;16.10;12.63;;;22.60;96.00;;;23.09;60.91;95223.91;5065963;28;20474;-57
2023/08/23 03:42:25;;;;;;;14.00;11.27;;;22.50;96.00;;;23.09;61.40;95229.25;5070525;28;20457;-58
2023/08/23 03:44:52;;;;;;;15.60;12.17;;;22.50;96.00;;;23.07;61.03;95225.94;5073723;28;20467;-56
2023/08/23 03:47:19;;;;;;;15.27;12.13;;;22.50;96.00;;;23.05;61.55;95222.63;5069209;28;20461;-57
2023/08/23 03:49:47;;;;;;;12.47;11.13;;;22.50;96.00;;;23.03;60.82;95225.50;5071934;28;20533;-57
2023/08/23 03:52:15;;;;;;;13.90;10.47;;;22.50;96.00;;;23.04;61.57;95227.19;5070380;28;20451;-57
2023/08/23 03:54:42;;;;;;;14.00;11.87;;;22.50;96.20;;;23.04;61.43;95226.34;5071512;28;20473;-59
2023/08/23 03:57:10;;;;;;;18.60;11.10;;;22.50;96.20;;;23.03;60.88;95224.69;5073387;28;20885;-59
2023/08/23 03:59:38;;;;;;;14.70;12.93;;;22.50;96.20;;;23.02;61.53;95226.56;5070878;28;20478;-57
2023/08/23 04:02:05;;;;;;;22.73;12.20;;;22.50;96.30;;;23.02;61.84;95233.78;5069063;28;20943;-59
2023/08/23 04:04:33;;;;;;;18.03;12.97;;;22.50;96.40;;;23.03;61.74;95228.19;5073247;28;20572;-55
2023/08/23 04:07:00;;;;;;;18.90;13.20;;;22.50;96.40;;;23.03;61.73;95232.75;5075951;28;20981;-59
2023/08/23 04:09:27;;;;;;;14.10;12.60;;;22.50;96.40;;;23.04;61.47;95229.84;5073857;28;20494;-59
2023/08/23 04:11:54;;;;;;;19.93;13.20;;;22.50;96.40;;;23.06;61.09;95226.97;5067079;28;20466;-55
2023/08/23 04:14:22;;;;;;;23.03;12.20;;;22.50;96.50;;;23.09;61.38;95229.25;5072132;28;21051;-57
2023/08/23 04:16:50;;;;;;;17.57;13.67;;;22.50;96.40;;;23.10;61.86;95225.56;5073232;28;20449;-56
2023/08/23 04:19:18;;;;;;;16.43;12.50;;;22.50;96.50;;;23.13;61.76;95229.66;5071109;28;20536;-56
2023/08/23 04:21:47;;;;;;;14.70;11.70;;;22.60;96.50;;;23.15;61.24;95224.94;5075596;28;20457;-58
2023/08/23 04:24:14;;;;;;;19.03;13.70;;;22.60;96.60;;;23.16;61.75;95230.09;5075161;28;20548;-56
2023/08/23 04:26:41;;;;;;;16.83;12.30;;;22.60;96.50;;;23.19;61.31;95228.81;5072527;28;20447;-55
2023/08/23 04:29:09;;;;;;;19.83;14.10;;;22.60;96.50;;;23.19;61.82;95226.97;5073830;28;20485;-56
2023/08/23 04:31:36;;;;;;;18.50;12.40;;;22.60;96.50;;;23.23;61.84;95224.69;5075323;28;20442;-61
2023/08/23 04:34:05;;;;;;;17.03;11.30;;;22.70;96.60;;;23.25;61.88;95220.78;5074364;28;20470;-60
2023/08/23 04:36:32;;;;;;;18.27;13.43;;;22.70;96.60;;;23.29;61.70;95223.03;5077256;28;20442;-56
2023/08/23 04:39:00;;;;;;;26.30;13.10;;;22.70;96.50;;;23.31;61.24;95226.31;5074633;28;20454;-59
2023/08/23 04:41:27;;;;;;;23.90;13.70;;;22.70;96.50;;;23.34;61.60;95233.97;5069336;28;20451;-58
2023/08/23 04:43:54;;;;;;;19.97;13.10;;;22.80;96.60;;;23.36;61.53;95234.56;5071403;28;20471;-58
2023/08/23 04:46:22;;;;;;;14.83;13.23;;;22.80;96.50;;;23.39;61.03;95234.13;5066226;28;20459;-58
2023/08/23 04:48:49;;;;;;;27.90;12.73;;;22.80;96.50;;;23.41;60.91;95232.09;5073768;28;20562;-59
2023/08/23 04:51:17;;;;;;;18.23;13.23;;;22.80;96.40;;;23.45;61.16;95239.50;5067555;28;20455;-60
2023/08/23 04:53:45;;;;;;;23.83;13.83;;;22.90;96.50;;;23.48;61.04;95243.63;5075443;28;20570;-56
2023/08/23 04:56:12;;;;;;;22.67;13.57;;;22.90;96.50;;;23.52;60.75;95244.84;5065050;28;20454;-57
2023/08/23 04:58:39;;;;;;;15.30;11.97;;;22.90;96.30;;;23.56;60.59;95237.19;5069379;28;20987;-58
2023/08/23 05:01:06;;;;;;;14.50;12.63;;;23.00;96.20;;;23.61;60.51;95238.22;5070751;28;20454;-58
2023/08/23 05:03:35;;;;;;;23.87;13.90;;;23.00;96.20;;;23.68;60.89;95232.00;5066277;28;20490;-60
2023/08/23 05:06:03;;;;;;;23.73;13.90;;;23.10;96.20;;;23.74;61.02;95233.81;5077543;28;20462;-58
2023/08/23 05:08:33;;;;;;;22.07;12.27;;;23.10;96.20;;;23.82;60.94;95236.25;5079718;28;20474;-57
2023/08/23 05:11:00;;;;;;;13.77;11.53;;;23.20;96.20;;;23.87;59.99;95231.09;5074074;28;20438;-59
2023/08/23 05:13:27;;;;;;;21.20;12.40;;;23.30;96.00;;;23.93;59.97;95238.28;5073030;28;20543;-55
2023/08/23 05:15:55;;;;;;;18.50;11.90;;;23.30;95.80;;;23.97;60.33;95228.78;5072325;28;20460;-56
2023/08/23 05:18:22;;;;;;;14.17;11.90;;;23.40;95.50;;;24.04;59.43;95230.59;5072398;28;20539;-57
2023/08/23 05:20:54;;;;;;;18.27;12.00;;;23.40;95.50;;;24.15;59.42;95222.69;5075167;28;20450;-57
2023/08/23 05:23:22;;;;;;;13.20;11.70;;;23.50;95.50;;;24.27;59.88;95230.06;5073201;28;20478;-57
2023/08/23 05:25:51;;;;;;;14.20;12.43;;;23.60;95.60;;;24.35;59.70;95227.09;5078569;28;20534;-56
2023/08/23 05:28:19;;;;;;;24.40;14.20;;;23.70;95.30;;;24.43;58.81;95231.38;5074613;28;20874;-57
2023/08/23 05:30:46;;;;;;;21.20;13.03;;;23.80;95.00;;;24.52;59.03;95238.16;5078758;28;20568;-59
2023/08/23 05:33:13;;;;;;;14.73;11.50;;;23.90;94.90;;;24.64;58.25;95235.63;5067796;28;20535;-57
2023/08/23 05:35:41;;;;;;;15.37;12.10;;;24.00;94.70;;;24.74;58.32;95230.59;5074407;28;20453;-59
2023/08/23 05:38:09;;;;;;;18.67;12.90;;;24.10;94.40;;;24.91;57.72;95243.47;5075530;28;20477;-58
2023/08/23 05:40:36;;;;;;;13.50;11.07;;;24.30;94.30;;;25.09;57.81;95242.69;5073233;28;20473;-58
2023/08/23 05:43:05;;;;;;;15.57;11.80;;;24.40;94.00;;;25.28;57.33;95230.06;5075684;28;20470;-57
2023/08/23 05:45:32;;;;;;;15.00;12.13;;;24.60;93.70;;;25.47;56.98;95233.63;5072139;28;20580;-59
2023/08/23 05:48:00;;;;;;;25.33;12.87;;;24.70;93.30;;;25.66;56.71;95232.59;5074903;28;20538;-56
2023/08/23 05:50:27;;;;;;;19.13;14.10;;;24.90;93.10;;;25.90;56.20;95227.31;5073442;28;20520;-57
2023/08/23 05:52:54;;;;;;;16.63;12.87;;;25.10;92.70;;;26.10;55.80;95227.94;5073561;28;20470;-59
2023/08/23 05:55:22;;;;;;;14.67;13.33;;;25.40;92.30;;;26.33;55.19;95226.34;5074566;28;20469;-60
2023/08/23 05:57:49;;;;;;;14.30;12.80;;;25.60;91.70;;;26.55;54.88;95233.91;5074100;28;20458;-56
2023/08/23 06:00:18;;;;;;;18.40;13.23;;;25.80;91.20;;;26.76;54.06;95237.97;5074197;28;20450;-57
2023/08/23 06:02:45;;;;;;;12.83;11.53;;;26.00;90.80;;;26.98;53.64;95236.34;5069393;28;20457;-57
2023/08/23 06:05:13;;;;;;;19.43;11.43;;;26.20;90.40;;;27.21;53.53;95242.81;5078159;28;20585;-57
2023/08/23 06:07:41;;;;;;;15.87;12.80;;;26.40;90.00;;;27.44;52.96;95246.59;5070406;28;20541;-55
2023/08/23 06:10:11;;;;;;;23.47;12.30;;;26.70;88.70;;;27.67;52.03;95241.16;5070737;28;20488;-57
2023/08/23 06:12:38;;;;;;;15.57;12.47;;;26.90;87.40;;;27.87;51.80;95239.91;5076107;28;20466;-59
2023/08/23 06:15:07;;;;;;;19.70;11.93;;;27.10;85.80;;;28.03;51.42;95233.78;5069136;28;20901;-58
2023/08/23 06:17:35;;;;;;;18.60;11.80;;;27.20;85.10;;;28.24;51.51;95236.88;5076069;28;20495;-59
2023/08/23 06:20:04;;;;;;;19.97;12.73;;;27.40;84.20;;;28.46;50.32;95236.19;5070407;28;20997;-56
2023/08/23 06:22:32;;;;;;;19.73;12.30;;;27.70;83.30;;;28.68;49.51;95239.88;5068938;28;20446;-59
2023/08/23 06:24:59;;;;;;;16.93;11.53;;;27.90;81.30;;;28.87;49.92;95231.50;5073768;28;20506;-56
2023/08/23 06:27:26;;;;;;;18.30;12.00;;;28.00;81.00;;;29.07;48.97;95222.88;5069131;28;20454;-59
2023/08/23 06:29:54;;;;;;;18.23;12.30;;;28.30;80.30;;;29.28;49.36;95232.16;5074473;28;20501;-59
2023/08/23 06:32:24;;;;;;;17.80;11.00;;;28.50;79.50;;;29.40;47.90;95230.16;5069559;28;20556;-59
2023/08/23 06:34:54;;;;;;;16.30;12.60;;;28.60;77.80;;;29.53;47.74;95229.00;5072642;28;20462;-59
2023/08/23 06:37:22;;;;;;;14.50;11.73;;;28.70;77.50;;;29.69;48.34;95222.69;5072989;28;20573;-60
2023/08/23 06:39:49;;;;;;;22.67;12.77;;;28.90;77.00;;;29.90;48.16;95228.41;5072300;28;20230;-56
2023/08/23 06:42:17;;;;;;;22.47;13.40;;;29.00;76.50;;;30.15;47.53;95230.59;5072828;28;20966;-57
2023/08/23 06:44:44;;;;;;;19.33;11.60;;;29.30;75.40;;;30.38;46.95;95225.94;5072007;28;20291;-60
2023/08/23 06:47:13;;;;;;;15.33;12.13;;;29.50;74.70;;;30.60;46.38;95225.91;5073078;28;20203;-63
2023/08/23 06:49:40;;;;;;;18.70;12.63;;;29.70;74.30;;;30.83;45.63;95232.06;5071400;28;20653;-57
2023/08/23 06:52:09;;;;;;;16.23;11.90;;;30.00;73.30;;;30.99;45.56;95227.63;5072505;28;20622;-59
2023/08/23 06:54:36;;;;;;;14.60;11.13;;;30.10;71.90;;;31.14;45.52;95230.47;5071237;28;20235;-61
2023/08/23 06:57:04;;;;;;;16.03;12.60;;;30.30;71.50;;;31.34;44.63;95228.94;5072614;28;20200;-59
2023/08/23 06:59:31;;;;;;;20.70;11.10;;;30.50;70.80;;;31.55;44.06;95233.47;5070461;28;20777;-60
2023/08/23 07:01:59;;;;;;;16.40;12.50;;;30.70;69.80;;;31.69;44.33;95231.09;5069632;28;20200;-58
2023/08/23 07:04:26;;;;;;;16.05;11.73;;;30.80;69.30;;;31.90;43.93;95232.00;5074275;28;20223;-59
2023/08/23 07:06:53;;;;;;;14.57;11.63;;;31.00;68.90;;;32.16;43.37;95232.94;5079911;28;20693;-56
2023/08/23 07:09:22;;;;;;;13.10;11.35;;;31.30;68.50;;;32.41;43.38;95228.66;5073232;28;20232;-58
2023/08/23 07:11:49;;;;;;;14.30;12.30;;;31.50;67.70;;;32.63;42.80;95228.41;5071679;28;20669;-56
2023/08/23 07:14:17;;;;;;;14.68;10.73;;;31.80;66.50;;;32.83;42.06;95235.00;5072436;28;20648;-57
2023/08/23 07:16:44;;;;;;;18.83;11.60;;;31.90;66.50;;;33.04;41.82;95233.88;5072950;28;20204;-56
2023/08/23 07:19:12;;;;;;;15.07;11.68;;;32.10;65.70;;;33.28;41.69;95232.53;5070936;28;20219;-57
2023/08/23 07:21:39;;;;;;;17.70;11.35;;;32.40;65.10;;;33.54;41.81;95236.88;5071178;28;20196;-58
2023/08/23 07:24:07;;;;;;;19.08;12.15;;;32.60;64.50;;;33.78;41.49;95235.47;5070791;28;20300;-63
2023/08/23 07:26:35;;;;;;;14.13;11.43;;;32.90;63.80;;;34.03;40.19;95229.09;5068392;28;20204;-58
2023/08/23 07:29:02;;;;;;;20.00;12.23;;;33.10;62.90;;;34.24;39.90;95227.91;5068370;28;20235;-58
2023/08/23 07:31:30;;;;;;;25.95;12.63;;;33.30;61.50;;;34.42;39.60;95220.16;5068286;28;20232;-60
2023/08/23 07:33:57;;;;;;;25.77;11.00;;;33.50;60.70;;;34.60;39.08;95219.50;5073551;28;21338;-59
2023/08/23 07:36:24;;;;;;;26.98;13.38;;;33.70;60.40;;;34.77;38.90;95218.31;5067897;28;20268;-58
2023/08/23 07:38:52;;;;;;;19.00;12.23;;;33.90;59.50;;;34.74;38.99;95218.88;5075711;28;20224;-56
2023/08/23 07:41:19;;;;;;;24.67;12.05;;;33.90;58.80;;;34.73;37.96;95218.03;5068356;28;20361;-57
2023/08/23 07:43:48;;;;;;;16.20;11.65;;;33.90;58.80;;;34.74;38.49;95213.41;5075695;28;20224;-55
2023/08/23 07:46:15;;;;;;;15.50;11.75;;;33.90;58.80;;;34.84;38.18;95218.78;5067917;28;20216;-56
2023/08/23 07:48:42;;;;;;;15.45;13.07;;;34.00;58.80;;;35.07;38.12;95210.97;5071417;28;20235;-57
2023/08/23 07:51:10;;;;;;;21.88;11.82;;;34.10;58.90;;;35.36;37.52;95209.06;5073111;28;20283;-57
2023/08/23 07:53:37;;;;;;;14.50;11.45;;;34.40;58.40;;;35.69;37.82;95220.19;5069643;28;20643;-60
2023/08/23 07:56:05;;;;;;;21.73;12.55;;;34.70;57.70;;;36.01;37.39;95210.53;5073369;28;20200;-60
2023/08/23 07:58:32;;;;;;;22.33;13.07;;;35.10;57.40;;;36.22;36.68;95211.09;5067604;28;20281;-60
2023/08/23 08:01:01;;;;;;;23.38;12.35;;;35.30;56.50;;;36.29;36.50;95213.50;5071860;28;20208;-57
2023/08/23 08:03:29;;;;;;;18.52;11.27;;;35.40;55.90;;;36.45;35.99;95213.28;5073143;28;20321;-57
2023/08/23 08:05:56;;;;;;;16.00;11.52;;;35.50;55.60;;;36.71;35.86;95217.25;5077921;28;20200;-59
2023/08/23 08:08:23;;;;;;;18.73;12.27;;;35.80;55.50;;;36.92;35.80;95208.72;5073555;28;20220;-56
2023/08/23 08:10:51;;;;;;;14.43;11.50;;;36.10;54.70;;;37.16;35.50;95208.63;5068502;28;20228;-61
2023/08/23 08:13:18;;;;;;;25.75;12.55;;;36.30;54.30;;;37.50;34.88;95211.03;5069802;28;20241;-56
2023/08/23 08:15:45;;;;;;;17.55;10.07;;;36.70;54.00;;;37.77;34.57;95201.25;5073771;28;20257;-60
2023/08/23 08:18:14;;;;;;;14.48;11.52;;;37.00;53.70;;;38.08;34.37;95197.84;5068125;28;20219;-57
2023/08/23 08:20:41;;;;;;;18.83;12.02;;;37.30;53.20;;;38.41;33.81;95197.72;5073238;28;20593;-61
2023/08/23 08:23:08;;;;;;;19.35;10.63;;;37.70;52.90;;;38.72;33.68;95197.03;5067202;28;20220;-60
2023/08/23 08:25:36;;;;;;;17.77;11.10;;;38.00;52.00;;;39.02;32.90;95200.16;5072629;28;20575;-58
2023/08/23 08:28:03;;;;;;;17.88;11.73;;;38.30;51.50;;;39.25;33.06;95199.00;5069017;28;20228;-59
2023/08/23 08:30:31;;;;;;;20.02;11.80;;;38.60;51.00;;;39.45;32.88;95197.66;5071430;28;20223;-60
2023/08/23 08:32:58;;;;;;;15.50;11.07;;;38.70;50.60;;;39.57;32.08;95197.09;5064676;28;20305;-59
2023/08/23 08:35:26;;;;;;;16.95;10.98;;;38.90;50.30;;;39.71;32.41;95194.25;5071171;28;20203;-57
2023/08/23 08:37:54;;;;;;;20.35;11.25;;;38.90;49.90;;;39.76;31.94;95196.03;5070456;28;20239;-60
2023/08/23 08:40:22;;;;;;;20.50;10.98;;;39.00;49.50;;;39.77;31.41;95192.16;5073694;28;20531;-57
2023/08/23 08:42:49;;;;;;;15.38;10.90;;;39.00;49.00;;;39.71;31.68;95194.25;5072667;28;20253;-61
2023/08/23 08:45:16;;;;;;;22.40;10.82;;;38.90;49.10;;;39.76;31.63;95196.03;5072599;28;20777;-59
2023/08/23 08:47:45;;;;;;;19.42;10.82;;;38.90;49.00;;;39.72;30.73;95195.06;5068853;28;20290;-60
2023/08/23 08:50:12;;;;;;;18.02;9.93;;;38.90;48.10;;;39.61;31.05;95194.53;5071641;28;20245;-61
2023/08/23 08:52:42;;;;;;;14.65;10.68;;;38.90;48.00;;;39.56;30.78;95189.97;5069827;28;20237;-57
2023/08/23 08:55:09;;;;;;;23.52;9.93;;;38.80;48.10;;;39.68;31.84;95189.38;5070011;28;20268;-55
2023/08/23 08:57:37;;;;;;;14.52;10.80;;;38.90;48.20;;;39.72;31.59;95192.28;5070354;28;20200;-57
2023/08/23 09:00:07;;;;;;;23.65;10.45;;;38.90;48.00;;;39.84;30.82;95181.47;5078257;28;20286;-56
2023/08/23 09:02:35;;;;;;;17.38;9.63;;;38.90;48.10;;;39.88;31.12;95179.72;5068201;28;20196;-57
2023/08/23 09:05:02;;;;;;;23.38;10.50;;;39.00;47.60;;;39.94;31.11;95172.94;5076041;28;20200;-55
2023/08/23 09:07:30;;;;;;;25.20;9.60;;;39.00;47.70;;;40.10;30.40;95167.81;5076525;28;20241;-60
2023/08/23 09:09:59;;;;;;;10.75;8.90;;;39.10;47.30;;;40.12;29.55;95164.72;5074428;28;20251;-62
2023/08/23 09:12:26;;;;;;;14.75;9.60;;;39.20;46.60;;;40.06;29.35;95177.03;5075083;28;20215;-57
2023/08/23 09:14:54;;;;;;;21.38;8.65;;;39.10;45.70;;;39.95;29.60;95160.75;5073636;28;20231;-56
2023/08/23 09:17:22;;;;;;;9.10;8.15;;;39.10;45.00;;;39.85;29.90;95161.06;5073955;28;20199;-60
2023/08/23 09:19:50;;;;;;;9.23;8.32;;;39.00;45.50;;;39.74;29.60;95156.97;5075667;28;20224;-55
2023/08/23 09:22:20;;;;;;;11.82;9.32;;;38.90;45.00;;;39.58;29.18;95148.34;5071210;28;20273;-58
2023/08/23 09:24:48;;;;;;;8.32;7.53;;;38.80;45.20;;;39.42;28.52;95148.75;5079976;28;20311;-60
2023/08/23 09:27:16;;;;;;;8.07;7.38;;;38.60;43.20;;;39.22;27.60;95149.31;5072010;28;20199;-63
2023/08/23 09:29:45;;;;;;;9.95;8.98;;;38.50;43.70;;;39.11;27.70;95147.97;5070856;28;20291;-60
2023/08/23 09:32:12;;;;;;;8.07;7.35;;;38.30;43.10;;;39.04;27.94;95135.44;5076233;28;20262;-59
2023/08/23 09:34:39;;;;;;;10.10;9.13;;;38.20;43.40;;;38.97;27.86;95132.31;5070936;28;20231;-58
2023/08/23 09:37:07;;;;;;;11.02;7.20;;;38.20;43.40;;;38.89;28.35;95136.63;5077583;28;20566;-57
2023/08/23 09:39:34;;;;;;;7.55;6.95;;;38.10;43.30;;;38.77;27.72;95121.84;5070919;28;20315;-61
2023/08/23 09:42:04;;;;;;;11.48;8.25;;;38.00;43.40;;;38.68;27.86;95117.09;5077398;28;20207;-57
2023/08/23 09:44:36;;;;;;;8.90;7.82;;;37.90;42.80;;;38.69;28.10;95123.41;5070144;28;21178;-58
2023/08/23 09:47:04;;;;;;;8.88;8.02;;;37.80;42.70;;;38.64;28.10;95112.53;5074574;28;20196;-60
2023/08/23 09:49:33;;;;;;;10.93;7.43;;;37.80;43.20;;;38.62;28.14;95112.00;5070891;28;20670;-61
2023/08/23 09:52:00;;;;;;;15.43;8.45;;;37.80;43.40;;;38.71;28.46;95105.47;5074786;28;20238;-59
2023/08/23 09:54:33;;;;;;;8.73;7.72;;;37.80;43.50;;;38.83;27.94;95104.91;5069075;28;20228;-60
2023/08/23 09:57:00;;;;;;;8.77;7.90;;;37.90;43.20;;;38.94;27.31;95099.13;5072472;28;20204;-57
2023/08/23 09:59:27;;;;;;;8.45;7.65;;;38.00;42.80;;;39.05;27.55;95098.53;5074820;28;20228;-60
2023/08/23 10:01:56;;;;;;;8.05;7.07;;;38.10;42.50;;;39.18;27.04;95098.78;5070206;28;20619;-60
2023/08/23 10:04:24;;;;;;;8.25;7.30;;;38.10;42.10;;;39.21;27.13;95104.47;5072843;28;20223;-57
2023/08/23 10:06:52;;;;;;;9.88;6.32;;;38.30;42.10;;;39.16;25.48;95101.84;5077694;28;20250;-59
2023/08/23 10:09:19;;;;;;;10.52;7.20;;;38.30;40.50;;;39.03;26.27;95100.00;5072449;28;20325;-60